Repentigny, Canada
Current Conditions -  °F | °C
As of 1:00 AM on Thursday 23 Oct 2014 (Local Time) from CYHU Reporting Station
Overcast Overcast  
Wind Chill: 38°   Ceiling: 6500
Heat Index: 45°   Visibility: 9mi
Dew Point: 34°   Wind: 13mph
Humidity: 66%   Direction: 40°NE
Pressure: 30.19"   Gusts: 20mph
Location:  45.73°N, 73.45°W
Report Text: CYHU 230500Z AUTO 04011G17KT 9SM OVC065 07/01 A3019 RMK SLP223
Loading
Personal Weather Stations






























Interactive Weather Map New forecast layout! Learn more

10-Day Weather Forecast

Advertisements
Track Severe Weather on mobile